Time;durP1;ratioP1;P1;durP2;ratioP2;P2;SDS_P1;SDS_P2;PMS_P1;PMS_P2;Temp;Humidity;BMP_temperature;BMP_pressure;BME280_temperature;BME280_humidity;BME280_pressure;Samples;Min_cycle;Max_cycle;Signal;HPM_P1;HPM_P2
2022/05/09 00:02:17;;;;;;;1.83;1.40;;;;;;;11.87;100.00;96773.38;5018361;28;20223;-86
2022/05/09 00:04:46;;;;;;;3.33;1.40;;;;;;;11.84;100.00;96769.25;5002988;28;20275;-86
2022/05/09 00:07:13;;;;;;;1.87;1.37;;;;;;;11.80;100.00;96776.19;5017193;28;20207;-85
2022/05/09 00:09:42;;;;;;;2.57;1.50;;;;;;;11.68;100.00;96780.66;5003874;28;20196;-86
2022/05/09 00:12:10;;;;;;;1.43;1.30;;;;;;;11.62;100.00;96781.56;4998957;28;20222;-85
2022/05/09 00:14:37;;;;;;;1.30;1.20;;;;;;;11.60;100.00;96789.06;5002124;28;20302;-85
2022/05/09 00:17:05;;;;;;;2.70;1.23;;;;;;;11.50;100.00;96778.78;4998672;28;20215;-85
2022/05/09 00:19:32;;;;;;;1.20;1.10;;;;;;;11.47;100.00;96781.13;4994916;28;20200;-84
2022/05/09 00:22:01;;;;;;;1.83;1.30;;;;;;;11.47;100.00;96770.31;5009213;28;20255;-85
2022/05/09 00:24:29;;;;;;;1.97;1.30;;;;;;;11.52;100.00;96778.56;4994817;28;20296;-85
2022/05/09 00:26:57;;;;;;;1.93;1.27;;;;;;;11.53;100.00;96783.75;5006714;28;20203;-85
2022/05/09 00:29:25;;;;;;;1.40;1.30;;;;;;;11.55;100.00;96780.81;5016313;28;20210;-85
2022/05/09 00:31:56;;;;;;;2.77;1.40;;;;;;;11.54;100.00;96774.59;5011342;28;20203;-85
2022/05/09 00:34:23;;;;;;;1.33;1.20;;;;;;;11.47;100.00;96773.00;5004286;28;20233;-86
2022/05/09 00:36:52;;;;;;;1.40;1.30;;;;;;;11.31;100.00;96769.03;5001225;28;20207;-85
2022/05/09 00:39:21;;;;;;;3.10;1.40;;;;;;;11.18;100.00;96761.03;5019640;28;20401;-85
2022/05/09 00:41:48;;;;;;;4.90;1.67;;;;;;;11.16;100.00;96766.66;5003421;28;20224;-85
2022/05/09 00:44:18;;;;;;;1.50;1.40;;;;;;;11.18;100.00;96764.56;5016275;28;20245;-85
2022/05/09 00:46:47;;;;;;;2.27;1.80;;;;;;;11.09;100.00;96760.50;5022008;28;20257;-85
2022/05/09 00:49:19;;;;;;;2.90;1.50;;;;;;;10.99;100.00;96760.19;5014879;28;20215;-85
2022/05/09 00:51:49;;;;;;;2.37;1.50;;;;;;;11.04;100.00;96757.66;4995727;28;20214;-85
2022/05/09 00:54:18;;;;;;;1.50;1.40;;;;;;;11.04;100.00;96754.13;5006921;28;20230;-85
2022/05/09 00:56:51;;;;;;;1.50;1.20;;;;;;;11.04;100.00;96752.25;5015209;28;20199;-85
2022/05/09 00:59:21;;;;;;;2.10;1.30;;;;;;;10.96;100.00;96747.16;5017708;28;20273;-85
2022/05/09 01:01:49;;;;;;;2.43;1.40;;;;;;;10.97;100.00;96751.50;5008490;28;20203;-85
2022/05/09 01:04:19;;;;;;;2.13;1.30;;;;;;;10.94;100.00;96747.34;5019439;28;20287;-85
2022/05/09 01:06:46;;;;;;;2.40;1.33;;;;;;;10.99;100.00;96749.38;5022117;28;20221;-85
2022/05/09 01:09:13;;;;;;;5.27;1.30;;;;;;;10.95;100.00;96738.22;4997946;28;20302;-85
2022/05/09 01:11:44;;;;;;;1.67;1.30;;;;;;;10.88;100.00;96742.03;5011838;28;20222;-85
2022/05/09 01:14:18;;;;;;;1.60;1.17;;;;;;;10.86;100.00;96747.66;4997708;28;20214;-85
2022/05/09 01:16:47;;;;;;;1.80;1.43;;;;;;;10.79;100.00;96741.50;5006814;28;20337;-85
2022/05/09 01:19:27;;;;;;;1.77;1.30;;;;;;;10.77;100.00;96732.78;4995781;28;20254;-85
2022/05/09 01:21:57;;;;;;;1.30;1.20;;;;;;;10.82;100.00;96740.19;4998520;28;20254;-85
2022/05/09 01:24:26;;;;;;;1.80;1.40;;;;;;;10.71;100.00;96744.47;5012365;28;20306;-84
2022/05/09 01:26:54;;;;;;;1.63;1.47;;;;;;;10.63;100.00;96734.75;5001858;28;20239;-84
2022/05/09 01:29:38;;;;;;;2.93;1.40;;;;;;;10.59;100.00;96738.94;4992472;28;20207;-85
2022/05/09 01:32:10;;;;;;;2.60;1.47;;;;;;;10.65;100.00;96737.22;4997016;28;20214;-84
2022/05/09 01:34:41;;;;;;;1.80;1.30;;;;;;;10.72;100.00;96746.09;5012698;28;20228;-84
2022/05/09 01:37:11;;;;;;;1.30;1.20;;;;;;;10.78;100.00;96753.34;4996920;28;20273;-84
2022/05/09 01:39:39;;;;;;;1.23;1.10;;;;;;;10.79;100.00;96746.06;5009571;28;20276;-85
2022/05/09 01:42:08;;;;;;;2.20;1.17;;;;;;;10.82;100.00;96753.69;4998870;28;20220;-85
2022/05/09 01:44:36;;;;;;;4.13;1.30;;;;;;;10.75;100.00;96747.53;4994274;28;20219;-85
2022/05/09 01:49:48;;;;;;;4.20;1.20;;;;;;;10.84;100.00;96759.72;5004275;28;20242;-85
2022/05/09 01:52:19;;;;;;;2.53;1.50;;;;;;;10.90;100.00;96765.06;5000743;28;20201;-85
2022/05/09 01:54:46;;;;;;;1.73;1.33;;;;;;;10.87;100.00;96760.13;5002517;28;20203;-84
2022/05/09 01:57:14;;;;;;;1.40;1.30;;;;;;;10.86;100.00;96749.53;4997324;28;20304;-84
2022/05/09 01:59:43;;;;;;;1.67;1.30;;;;;;;10.87;100.00;96761.97;4992845;28;20270;-85
2022/05/09 02:02:12;;;;;;;2.67;1.40;;;;;;;10.81;100.00;96769.06;5000622;28;20227;-85
2022/05/09 02:04:40;;;;;;;1.43;1.10;;;;;;;10.76;100.00;96763.53;5017668;28;20208;-86
2022/05/09 02:07:09;;;;;;;1.30;1.20;;;;;;;10.82;100.00;96769.91;4996636;28;20258;-85
2022/05/09 02:09:40;;;;;;;1.17;1.07;;;;;;;10.79;100.00;96764.97;5005396;28;20204;-85
2022/05/09 02:12:09;;;;;;;1.30;1.20;;;;;;;10.83;100.00;96776.97;4994144;28;20212;-85
2022/05/09 02:14:37;;;;;;;1.20;1.10;;;;;;;10.84;100.00;96778.63;5020927;28;20203;-85
2022/05/09 02:17:06;;;;;;;3.20;1.40;;;;;;;10.74;100.00;96783.69;4992376;28;20227;-85
2022/05/09 02:19:34;;;;;;;1.40;1.30;;;;;;;10.59;100.00;96765.94;5007573;28;20295;-84
2022/05/09 02:22:01;;;;;;;2.33;1.40;;;;;;;10.53;100.00;96783.03;5005143;28;20235;-85
2022/05/09 02:24:29;;;;;;;1.70;1.13;;;;;;;10.55;100.00;96775.53;5003152;28;20209;-84
2022/05/09 02:26:59;;;;;;;1.23;1.13;;;;;;;10.59;100.00;96778.63;4990802;28;20211;-84
2022/05/09 02:29:26;;;;;;;2.17;1.20;;;;;;;10.56;100.00;96781.75;5004341;28;20316;-85
2022/05/09 02:31:54;;;;;;;1.23;1.13;;;;;;;10.49;100.00;96786.38;5004110;28;20207;-84
2022/05/09 02:34:22;;;;;;;1.90;1.50;;;;;;;10.45;100.00;96785.19;4999950;28;20212;-85
2022/05/09 02:36:49;;;;;;;6.13;3.87;;;;;;;10.34;100.00;96777.78;5000707;28;20259;-84
2022/05/09 02:39:17;;;;;;;10.87;9.77;;;;;;;10.19;100.00;96787.00;5001374;28;20211;-84
2022/05/09 02:41:44;;;;;;;5.87;5.27;;;;;;;10.11;100.00;96781.84;5019526;28;20208;-84
2022/05/09 02:44:14;;;;;;;6.10;5.20;;;;;;;10.14;100.00;96792.19;5009986;28;20231;-85
2022/05/09 02:46:42;;;;;;;3.80;3.20;;;;;;;10.10;100.00;96793.69;5021615;28;20299;-85
2022/05/09 02:49:09;;;;;;;3.37;2.60;;;;;;;10.15;100.00;96806.50;5019685;28;20243;-85
2022/05/09 02:51:36;;;;;;;2.30;2.10;;;;;;;10.19;100.00;96807.78;5002178;28;20216;-84
2022/05/09 02:54:03;;;;;;;3.73;1.97;;;;;;;10.22;100.00;96812.72;4999639;28;20550;-85
2022/05/09 02:56:30;;;;;;;4.10;2.77;;;;;;;10.24;100.00;96810.63;5001387;28;20274;-84
2022/05/09 02:58:58;;;;;;;5.83;4.87;;;;;;;10.20;100.00;96804.03;4996602;28;20204;-85
2022/05/09 03:01:26;;;;;;;11.73;6.70;;;;;;;10.21;100.00;96816.47;5017689;28;20235;-84
2022/05/09 03:06:39;;;;;;;4.33;2.23;;;;;;;10.07;100.00;96799.50;5002693;28;20250;-85
2022/05/09 03:09:06;;;;;;;3.07;2.00;;;;;;;10.02;100.00;96812.00;5011950;28;20219;-85
2022/05/09 03:11:33;;;;;;;1.70;1.60;;;;;;;9.96;100.00;96807.44;5003082;28;20215;-84
2022/05/09 03:14:00;;;;;;;4.60;2.40;;;;;;;9.93;100.00;96807.88;5000520;28;20235;-84
2022/05/09 03:16:29;;;;;;;4.63;2.40;;;;;;;9.83;100.00;96808.34;5003234;28;20294;-84
2022/05/09 03:18:56;;;;;;;2.60;2.40;;;;;;;9.82;100.00;96815.59;4995077;28;20295;-84
2022/05/09 03:21:23;;;;;;;6.43;3.37;;;;;;;9.79;100.00;96816.00;4995360;28;20231;-85
2022/05/09 03:23:50;;;;;;;2.27;2.07;;;;;;;9.77;100.00;96815.44;5001741;28;20307;-85
2022/05/09 03:26:18;;;;;;;4.10;1.50;;;;;;;9.81;100.00;96813.94;5005702;28;20211;-84
2022/05/09 03:28:45;;;;;;;3.77;1.63;;;;;;;9.88;100.00;96811.19;5004522;28;20199;-84
2022/05/09 03:31:13;;;;;;;1.67;1.50;;;;;;;9.87;100.00;96804.97;5014324;28;20198;-84
2022/05/09 03:33:42;;;;;;;3.50;1.40;;;;;;;9.91;100.00;96810.78;5019169;28;20207;-85
2022/05/09 03:36:10;;;;;;;2.30;1.50;;;;;;;9.93;100.00;96813.28;5025550;28;20215;-84
2022/05/09 03:38:38;;;;;;;6.90;1.40;;;;;;;9.88;100.00;96809.34;5009400;28;20199;-84
2022/05/09 03:41:06;;;;;;;2.93;1.60;;;;;;;9.97;100.00;96815.31;5006379;28;20217;-84
2022/05/09 03:43:33;;;;;;;2.47;1.30;;;;;;;9.97;100.00;96819.88;5004323;28;20227;-84
2022/05/09 03:46:01;;;;;;;3.87;1.60;;;;;;;9.98;100.00;96821.53;5017677;28;20302;-84
2022/05/09 03:48:28;;;;;;;2.87;1.90;;;;;;;9.87;100.00;96823.84;5017286;28;20290;-84
2022/05/09 03:50:57;;;;;;;3.87;1.70;;;;;;;9.82;100.00;96829.09;5004028;28;20564;-84
2022/05/09 03:53:24;;;;;;;4.30;1.83;;;;;;;9.76;100.00;96827.25;5007945;28;20199;-84
2022/05/09 03:55:51;;;;;;;6.50;1.80;;;;;;;9.79;100.00;96832.19;4996616;28;20291;-84
2022/05/09 03:58:19;;;;;;;2.60;1.53;;;;;;;9.83;100.00;96851.50;5003534;28;20293;-84
2022/05/09 04:00:46;;;;;;;2.20;1.47;;;;;;;9.73;100.00;96846.53;4998401;28;20274;-84
2022/05/09 04:03:13;;;;;;;5.70;2.50;;;;;;;9.76;100.00;96843.44;5018486;28;20215;-84
2022/05/09 04:05:42;;;;;;;3.87;2.10;;;;;;;9.69;100.00;96845.31;5009126;28;20198;-84
2022/05/09 04:08:12;;;;;;;1.80;1.70;;;;;;;9.64;100.00;96841.59;5013873;28;20302;-84
2022/05/09 04:10:41;;;;;;;2.67;1.70;;;;;;;9.61;100.00;96845.53;5011089;28;20204;-84
2022/05/09 04:13:08;;;;;;;4.63;1.40;;;;;;;9.59;100.00;96844.09;4999755;28;20215;-84
2022/05/09 04:18:21;;;;;;;5.80;2.47;;;;;;;9.54;100.00;96846.59;5008784;28;20210;-84
2022/05/09 04:20:51;;;;;;;2.93;1.70;;;;;;;9.52;100.00;96849.53;5019849;28;20219;-84
2022/05/09 04:23:21;;;;;;;2.40;1.77;;;;;;;9.57;100.00;96851.56;5021053;28;20234;-84
2022/05/09 04:25:48;;;;;;;2.17;1.60;;;;;;;9.54;100.00;96851.97;5020300;28;20219;-85
2022/05/09 04:28:18;;;;;;;2.60;1.70;;;;;;;9.42;100.00;96849.97;5007177;28;20207;-84
2022/05/09 04:30:46;;;;;;;6.90;2.13;;;;;;;9.52;100.00;96856.78;5023594;28;20326;-84
2022/05/09 04:36:06;;;;;;;1.33;1.23;;;;;;;9.61;100.00;96861.72;5045838;28;20561;-80
2022/05/09 04:38:35;;;;;;;1.50;1.40;;;;;;;9.61;100.00;96856.31;5030292;28;20230;-81
2022/05/09 04:41:03;;;;;;;4.23;1.53;;;;;;;9.59;100.00;96861.13;5033266;28;20253;-80
2022/05/09 04:43:31;;;;;;;6.43;2.20;;;;;;;9.64;100.00;96869.38;5037788;28;20261;-80
2022/05/09 04:45:59;;;;;;;2.03;1.73;;;;;;;9.68;100.00;96859.84;5043583;28;20205;-80
2022/05/09 04:48:27;;;;;;;2.13;1.60;;;;;;;9.77;100.00;96863.97;5050384;28;20202;-80
2022/05/09 04:50:54;;;;;;;1.60;1.50;;;;;;;9.84;100.00;96862.06;5026911;28;20217;-80
2022/05/09 04:53:22;;;;;;;4.23;2.30;;;;;;;9.85;100.00;96871.00;5035004;28;20195;-80
2022/05/09 04:55:49;;;;;;;2.07;1.73;;;;;;;9.86;100.00;96868.09;5054384;28;20229;-80
2022/05/09 04:58:18;;;;;;;3.13;1.50;;;;;;;9.89;100.00;96869.50;5027384;28;20290;-80
2022/05/09 05:00:45;;;;;;;3.97;2.03;;;;;;;9.87;100.00;96864.31;5036654;28;20215;-80
2022/05/09 05:03:14;;;;;;;2.00;1.50;;;;;;;9.88;100.00;96876.78;5030870;28;20218;-80
2022/05/09 05:05:42;;;;;;;1.63;1.30;;;;;;;9.93;100.00;96872.63;5030542;28;20221;-80
2022/05/09 05:08:10;;;;;;;1.20;1.10;;;;;;;9.94;100.00;96874.28;5038044;28;20214;-80
2022/05/09 05:10:38;;;;;;;1.50;1.40;;;;;;;10.01;100.00;96877.78;5046987;28;20302;-80
2022/05/09 05:13:05;;;;;;;3.53;2.50;;;;;;;10.11;100.00;96883.56;5027293;28;20210;-80
2022/05/09 05:15:33;;;;;;;2.73;1.70;;;;;;;10.13;100.00;96884.13;5041528;28;20215;-80
2022/05/09 05:18:01;;;;;;;4.27;1.60;;;;;;;10.14;100.00;96892.03;5035457;28;20212;-80
2022/05/09 05:20:28;;;;;;;5.00;1.57;;;;;;;10.10;100.00;96881.88;5032375;28;20227;-80
2022/05/09 05:22:55;;;;;;;1.77;1.60;;;;;;;10.09;100.00;96886.47;5039998;28;20226;-80
2022/05/09 05:25:25;;;;;;;2.33;1.43;;;;;;;10.08;100.00;96887.50;5033934;28;20262;-80
2022/05/09 05:27:53;;;;;;;2.27;1.60;;;;;;;10.06;100.00;96891.44;5026650;28;20205;-80
2022/05/09 05:30:21;;;;;;;2.27;1.90;;;;;;;10.00;100.00;96884.22;5031232;28;20215;-80
2022/05/09 05:32:48;;;;;;;2.07;1.50;;;;;;;10.07;100.00;96891.22;5029950;28;20209;-80
2022/05/09 05:35:18;;;;;;;4.10;1.60;;;;;;;10.16;100.00;96894.50;5038851;28;20234;-80
2022/05/09 05:37:45;;;;;;;3.90;1.50;;;;;;;10.22;100.00;96893.69;5033864;28;20205;-80
2022/05/09 05:40:13;;;;;;;3.77;1.50;;;;;;;10.27;100.00;96891.19;5033092;28;20207;-81
2022/05/09 05:42:42;;;;;;;1.50;1.40;;;;;;;10.30;100.00;96898.84;5031800;28;20200;-80
2022/05/09 05:45:13;;;;;;;2.83;1.50;;;;;;;10.31;100.00;96905.06;5037177;28;20450;-81
2022/05/09 05:47:42;;;;;;;9.13;1.53;;;;;;;10.21;100.00;96910.91;5009665;28;20359;-80
2022/05/09 05:50:13;;;;;;;4.43;1.70;;;;;;;10.24;100.00;96918.59;5017371;28;20215;-80
2022/05/09 05:52:40;;;;;;;1.80;1.70;;;;;;;10.23;100.00;96912.38;5014619;28;20213;-80
2022/05/09 05:55:08;;;;;;;3.37;1.80;;;;;;;10.21;100.00;96909.03;5019651;28;20226;-80
2022/05/09 05:57:38;;;;;;;6.77;1.90;;;;;;;10.21;100.00;96914.44;5017502;28;20195;-80
2022/05/09 06:00:08;;;;;;;4.30;1.73;;;;;;;10.27;100.00;96915.47;5020481;28;20199;-80
2022/05/09 06:02:45;;;;;;;4.67;1.60;;;;;;;10.35;100.00;96920.63;5013615;28;20200;-80
2022/05/09 06:05:13;;;;;;;3.07;2.17;;;;;;;10.40;100.00;96915.41;5014871;28;20235;-80
2022/05/09 06:07:41;;;;;;;1.70;1.50;;;;;;;10.43;100.00;96906.88;5015814;28;20215;-80
2022/05/09 06:10:11;;;;;;;6.70;1.67;;;;;;;10.47;100.00;96913.50;5018473;28;20215;-81
2022/05/09 06:12:38;;;;;;;1.67;1.57;;;;;;;10.48;100.00;96914.31;5020390;28;20301;-81
2022/05/09 06:17:52;;;;;;;2.40;1.80;;;;;;;10.50;100.00;96907.66;5018004;28;20301;-80
2022/05/09 06:20:20;;;;;;;4.40;2.00;;;;;;;10.50;100.00;96910.38;5015192;28;20235;-80
2022/05/09 06:22:48;;;;;;;2.00;1.70;;;;;;;10.52;100.00;96915.56;5027033;28;20215;-80
2022/05/09 06:25:19;;;;;;;2.13;1.60;;;;;;;10.55;100.00;96915.09;5023157;28;20211;-80
2022/05/09 06:27:46;;;;;;;4.07;2.10;;;;;;;10.60;100.00;96910.75;5012430;28;20263;-80
2022/05/09 06:30:15;;;;;;;1.67;1.40;;;;;;;10.68;100.00;96911.53;5018267;28;20210;-81
2022/05/09 06:32:42;;;;;;;3.30;1.57;;;;;;;10.73;100.00;96917.09;5012526;28;20213;-81
2022/05/09 06:35:14;;;;;;;2.00;1.70;;;;;;;10.74;100.00;96913.34;5009693;28;20239;-81
2022/05/09 06:37:42;;;;;;;1.77;1.63;;;;;;;10.68;100.00;96909.66;5012799;28;20416;-81
2022/05/09 06:40:11;;;;;;;3.70;1.90;;;;;;;10.72;100.00;96908.16;5017473;28;20230;-81
2022/05/09 06:42:38;;;;;;;3.73;2.00;;;;;;;10.75;100.00;96909.59;5013424;28;20215;-81
2022/05/09 06:45:07;;;;;;;1.87;1.67;;;;;;;10.78;100.00;96910.00;5013130;28;20219;-81
2022/05/09 06:47:34;;;;;;;3.30;2.00;;;;;;;10.74;100.00;96908.78;5017627;28;20211;-81
2022/05/09 06:50:02;;;;;;;2.77;1.90;;;;;;;10.75;100.00;96904.19;5017364;28;20285;-80
2022/05/09 06:52:31;;;;;;;2.30;2.10;;;;;;;10.77;100.00;96899.41;5009511;28;20208;-80
2022/05/09 06:54:58;;;;;;;4.10;2.37;;;;;;;10.83;100.00;96895.84;5012185;28;20228;-80
2022/05/09 06:57:27;;;;;;;3.00;2.30;;;;;;;10.89;100.00;96906.59;5007967;28;20218;-81
2022/05/09 06:59:54;;;;;;;5.90;3.47;;;;;;;10.91;100.00;96909.91;5022449;28;20345;-80
2022/05/09 07:02:21;;;;;;;4.80;3.23;;;;;;;10.94;100.00;96898.66;5013706;28;20301;-80
2022/05/09 07:04:48;;;;;;;3.87;3.27;;;;;;;10.98;100.00;96899.03;5016075;28;20212;-81
2022/05/09 07:07:15;;;;;;;7.30;4.10;;;;;;;10.97;100.00;96895.50;5019245;28;20199;-81
2022/05/09 07:09:43;;;;;;;3.30;3.00;;;;;;;11.07;100.00;96892.31;5011348;28;20207;-81
2022/05/09 07:12:11;;;;;;;4.20;3.03;;;;;;;11.15;100.00;96894.75;5014173;28;20222;-80
2022/05/09 07:14:41;;;;;;;4.87;3.00;;;;;;;11.30;100.00;96892.56;5017316;28;20294;-81
2022/05/09 07:17:11;;;;;;;3.50;2.90;;;;;;;11.54;100.00;96882.75;5006806;28;20203;-80
2022/05/09 07:19:38;;;;;;;3.43;2.53;;;;;;;11.90;100.00;96889.28;5016963;28;20208;-80
2022/05/09 07:22:05;;;;;;;2.53;2.10;;;;;;;12.21;100.00;96893.72;5016079;28;20315;-81
2022/05/09 07:24:33;;;;;;;2.60;2.40;;;;;;;12.58;100.00;96889.91;5015961;28;20211;-80
2022/05/09 07:27:01;;;;;;;2.80;2.20;;;;;;;12.88;100.00;96893.41;5013104;28;20214;-81
2022/05/09 07:29:28;;;;;;;5.47;2.00;;;;;;;13.03;100.00;96894.84;5017607;28;20265;-80
2022/05/09 07:31:56;;;;;;;1.97;1.77;;;;;;;13.21;100.00;96890.19;5017303;28;20209;-80
2022/05/09 07:34:23;;;;;;;4.27;1.80;;;;;;;13.52;100.00;96890.94;5014822;28;20231;-80
2022/05/09 07:36:50;;;;;;;2.90;1.80;;;;;;;13.82;100.00;96899.78;5017800;28;20210;-81
2022/05/09 07:39:17;;;;;;;2.10;1.90;;;;;;;14.13;100.00;96900.44;5018923;28;20207;-80
2022/05/09 07:41:44;;;;;;;3.03;2.27;;;;;;;14.58;100.00;96895.16;5017515;28;20203;-80
2022/05/09 07:44:12;;;;;;;3.33;2.53;;;;;;;14.88;100.00;96901.19;5013536;28;20215;-81
2022/05/09 07:46:39;;;;;;;3.20;2.20;;;;;;;15.19;100.00;96899.81;5010204;28;20210;-80
2022/05/09 07:49:06;;;;;;;1.87;1.77;;;;;;;15.50;100.00;96896.53;5015394;28;20258;-80
2022/05/09 07:51:37;;;;;;;3.47;2.03;;;;;;;15.76;100.00;96897.78;5020374;28;20207;-80
2022/05/09 07:54:04;;;;;;;2.93;2.10;;;;;;;15.87;100.00;96890.59;5021372;28;20214;-79
2022/05/09 07:56:31;;;;;;;3.37;1.90;;;;;;;15.96;100.00;96899.16;5014870;28;20236;-80
2022/05/09 07:58:59;;;;;;;2.93;1.87;;;;;;;16.03;100.00;96894.34;5021442;28;20217;-80
2022/05/09 08:01:27;;;;;;;2.53;1.90;;;;;;;16.23;100.00;96898.19;5013143;28;20205;-80
2022/05/09 08:03:57;;;;;;;2.30;1.53;;;;;;;16.30;100.00;96892.53;5015259;28;20201;-80
2022/05/09 08:06:24;;;;;;;1.40;1.30;;;;;;;16.42;100.00;96892.38;5026915;28;20214;-80
2022/05/09 08:08:51;;;;;;;3.37;1.80;;;;;;;16.44;100.00;96885.63;5015356;28;20208;-82
2022/05/09 08:11:18;;;;;;;2.27;1.90;;;;;;;16.58;100.00;96895.06;5023594;28;20211;-82
2022/05/09 08:13:46;;;;;;;2.20;2.00;;;;;;;16.77;100.00;96881.94;5013479;28;20239;-81
2022/05/09 08:16:15;;;;;;;3.53;1.97;;;;;;;17.03;100.00;96883.84;5007709;28;20231;-82
2022/05/09 08:18:43;;;;;;;4.60;2.40;;;;;;;17.10;100.00;96885.56;5020006;28;20207;-83
2022/05/09 08:21:12;;;;;;;4.63;2.23;;;;;;;17.01;100.00;96887.94;5008682;28;20227;-82
2022/05/09 08:23:39;;;;;;;2.53;2.23;;;;;;;17.02;100.00;96884.09;5036041;28;20206;-83
2022/05/09 08:26:07;;;;;;;5.90;4.80;;;;;;;17.18;100.00;96869.50;5015383;28;20214;-82
2022/05/09 08:28:34;;;;;;;18.57;8.77;;;;;;;17.40;100.00;96881.19;5014957;28;20216;-82
2022/05/09 08:31:03;;;;;;;23.27;10.03;;;;;;;17.56;100.00;96884.84;5018823;28;20203;-82
2022/05/09 08:33:30;;;;;;;50.80;30.63;;;;;;;17.62;100.00;96880.28;5015316;28;20234;-82
2022/05/09 08:36:00;;;;;;;4.47;2.93;;;;;;;17.73;95.64;96885.56;5010337;28;20249;-82
2022/05/09 08:38:27;;;;;;;17.77;10.53;;;;;;;17.70;97.52;96880.59;5032474;28;20227;-82
2022/05/09 08:41:09;;;;;;;4.67;3.07;;;;;;;17.78;97.30;96871.91;5009651;28;20311;-81
2022/05/09 08:43:56;;;;;;;7.13;3.43;;;;;;;17.77;97.77;96870.31;5018046;28;20214;-82
2022/05/09 08:46:32;;;;;;;11.47;5.17;;;;;;;17.90;96.67;96873.63;5009423;28;20207;-82
2022/05/09 08:49:18;;;;;;;4.37;2.63;;;;;;;18.11;93.67;96870.78;5010496;28;20219;-82
2022/05/09 08:51:56;;;;;;;3.63;2.60;;;;;;;18.14;94.49;96870.22;5024625;28;20239;-82
2022/05/09 08:54:26;;;;;;;2.63;2.40;;;;;;;18.05;94.56;96871.81;5016968;28;20203;-82
2022/05/09 08:56:59;;;;;;;2.93;2.60;;;;;;;18.15;97.17;96871.88;5015634;28;20226;-82
2022/05/09 08:59:31;;;;;;;7.87;2.57;;;;;;;18.38;92.65;96880.72;5019223;28;20207;-82
2022/05/09 09:02:05;;;;;;;4.13;2.43;;;;;;;18.48;90.42;96881.59;5007831;28;20203;-83
2022/05/09 09:04:36;;;;;;;3.27;2.37;;;;;;;18.51;87.96;96885.72;5047377;28;20198;-82
2022/05/09 09:07:40;;;;;;;3.35;2.70;;;;;;;18.52;88.17;96884.63;5012569;28;20231;-83
2022/05/09 09:10:18;;;;;;;3.10;2.80;;;;;;;18.73;89.72;96878.16;5020502;28;20215;-82
2022/05/09 09:12:57;;;;;;;3.00;2.78;;;;;;;19.01;89.69;96878.78;5013893;28;20212;-81
2022/05/09 09:15:40;;;;;;;6.10;2.72;;;;;;;19.28;89.47;96880.19;5019193;28;20237;-82
2022/05/09 09:18:25;;;;;;;3.10;2.78;;;;;;;19.22;84.43;96875.00;5012794;28;20282;-82
2022/05/09 09:21:00;;;;;;;3.40;2.92;;;;;;;19.27;86.42;96878.53;5022728;28;20286;-82
2022/05/09 09:24:14;;;;;;;4.78;2.70;;;;;;;19.33;85.96;96868.41;5020720;28;20214;-82
2022/05/09 09:26:54;;;;;;;3.30;3.00;;;;;;;19.33;86.02;96871.13;4964880;28;20205;-82
2022/05/09 09:29:26;;;;;;;3.15;2.85;;;;;;;19.34;85.76;96889.22;5021380;28;20301;-82
2022/05/09 09:31:59;;;;;;;5.30;2.78;;;;;;;19.39;85.21;96888.41;5016217;28;20210;-82
2022/05/09 09:34:34;;;;;;;2.88;2.60;;;;;;;19.48;84.24;96868.44;5018364;28;20239;-82
2022/05/09 09:37:07;;;;;;;2.72;2.53;;;;;;;19.54;81.88;96872.84;5011837;28;20253;-82
2022/05/09 09:39:36;;;;;;;3.03;2.63;;;;;;;19.42;81.93;96864.03;5034965;28;20222;-83
2022/05/09 09:42:03;;;;;;;5.70;2.97;;;;;;;19.36;83.21;96878.81;5013672;28;20206;-82
2022/05/09 09:44:34;;;;;;;3.58;2.70;;;;;;;19.27;84.85;96877.72;5017359;28;20270;-81
2022/05/09 09:47:11;;;;;;;6.68;2.80;;;;;;;19.37;84.98;96866.78;5026832;28;20203;-82
2022/05/09 09:49:41;;;;;;;3.85;3.30;;;;;;;19.23;83.28;96866.47;5023055;28;20202;-81
2022/05/09 09:52:19;;;;;;;4.63;2.75;;;;;;;19.43;84.84;96870.31;5012119;28;20199;-82
2022/05/09 09:54:52;;;;;;;3.40;3.10;;;;;;;19.60;82.28;96868.97;5014369;28;20208;-82
2022/05/09 09:57:22;;;;;;;6.03;3.47;;;;;;;19.64;83.53;96856.41;5021954;28;20290;-82
2022/05/09 09:59:50;;;;;;;4.25;2.90;;;;;;;19.65;80.93;96857.19;5027872;28;20265;-82
2022/05/09 10:02:24;;;;;;;3.88;2.92;;;;;;;19.75;79.26;96859.09;5022549;28;20210;-82
2022/05/09 10:04:56;;;;;;;3.55;3.10;;;;;;;19.84;77.73;96860.19;5034160;28;20211;-83
2022/05/09 10:07:30;;;;;;;3.53;3.20;;;;;;;20.01;77.82;96860.69;5017929;28;20374;-82
2022/05/09 10:10:10;;;;;;;4.63;2.85;;;;;;;20.02;77.47;96862.34;5015281;28;20214;-83
2022/05/09 10:12:38;;;;;;;3.80;3.00;;;;;;;19.93;75.92;96861.25;5018004;28;20212;-83
2022/05/09 10:15:24;;;;;;;3.25;2.95;;;;;;;20.07;78.12;96859.59;5021997;28;20236;-82
2022/05/09 10:17:52;;;;;;;3.20;2.90;;;;;;;19.60;78.66;96855.28;5014944;28;20199;-82
2022/05/09 10:20:29;;;;;;;3.60;3.30;;;;;;;19.48;80.41;96852.00;5011828;28;20231;-83
2022/05/09 10:26:06;;;;;;;3.42;3.13;;;;;;;19.39;79.67;96842.69;5023164;28;20222;-82
2022/05/09 10:28:38;;;;;;;5.93;3.80;;;;;;;19.20;81.05;96838.84;5013206;28;20239;-82
2022/05/09 10:31:20;;;;;;;3.95;3.58;;;;;;;19.00;82.79;96839.63;5012142;28;20221;-82
2022/05/09 10:33:56;;;;;;;5.40;3.65;;;;;;;18.81;83.78;96836.59;5018197;28;20219;-82
2022/05/09 10:36:29;;;;;;;5.07;3.65;;;;;;;18.84;84.34;96841.53;5023362;28;20272;-82
2022/05/09 10:39:01;;;;;;;4.10;3.72;;;;;;;18.97;86.02;96839.38;5019972;28;20298;-81
2022/05/09 10:41:40;;;;;;;4.97;3.85;;;;;;;19.24;83.44;96834.44;5010644;28;20423;-82
2022/05/09 10:44:13;;;;;;;4.22;3.70;;;;;;;19.42;83.82;96841.28;5015797;28;20210;-81
2022/05/09 10:46:49;;;;;;;4.22;3.83;;;;;;;19.56;81.09;96832.28;5014496;28;20207;-82
2022/05/09 10:49:38;;;;;;;4.85;3.40;;;;;;;19.28;80.49;96835.56;5017523;28;20204;-82
2022/05/09 10:52:18;;;;;;;4.95;3.47;;;;;;;19.16;82.32;96830.34;5019205;28;20211;-83
2022/05/09 10:54:50;;;;;;;5.50;3.80;;;;;;;19.17;84.94;96828.44;5023492;28;20253;-82
2022/05/09 10:57:29;;;;;;;4.32;3.80;;;;;;;19.17;83.53;96818.28;5017927;28;20223;-83
2022/05/09 11:00:05;;;;;;;4.07;3.67;;;;;;;19.25;83.76;96825.13;5017242;28;20211;-82
2022/05/09 11:02:38;;;;;;;5.20;4.32;;;;;;;19.18;81.83;96814.47;5014339;28;20273;-82
2022/05/09 11:05:06;;;;;;;5.03;3.97;;;;;;;19.15;84.40;96830.59;5021261;28;20207;-82
2022/05/09 11:07:40;;;;;;;4.28;3.88;;;;;;;19.22;84.53;96815.53;5023444;28;20217;-82
2022/05/09 11:10:20;;;;;;;4.30;3.90;;;;;;;19.35;83.62;96816.09;5015012;28;20215;-82
2022/05/09 11:13:20;;;;;;;3.95;3.65;;;;;;;19.75;82.14;96810.59;5021537;28;20203;-82
2022/05/09 11:16:00;;;;;;;6.90;4.40;;;;;;;20.18;80.73;96816.50;5002931;28;20210;-81
2022/05/09 11:18:43;;;;;;;4.20;3.80;;;;;;;20.57;79.01;96820.22;5042071;28;20213;-82
2022/05/09 11:21:19;;;;;;;4.30;3.90;;;;;;;20.79;75.64;96808.84;5014471;28;20232;-82
2022/05/09 11:23:56;;;;;;;9.45;7.53;;;;;;;21.12;74.76;96799.81;5014058;28;20231;-82
2022/05/09 11:26:32;;;;;;;3.97;3.55;;;;;;;21.30;74.55;96809.31;5016465;28;20210;-82
2022/05/09 11:29:18;;;;;;;6.93;3.70;;;;;;;21.23;73.10;96789.59;5019917;28;20210;-83
2022/05/09 11:32:02;;;;;;;4.03;3.58;;;;;;;21.44;73.48;96802.03;5020720;28;20208;-83
2022/05/09 11:34:41;;;;;;;5.22;4.40;;;;;;;21.67;72.70;96805.16;5019969;28;20241;-83
2022/05/09 11:37:19;;;;;;;6.85;3.97;;;;;;;21.77;71.46;96799.56;5017620;28;20230;-83
2022/05/09 11:40:00;;;;;;;4.65;3.72;;;;;;;22.01;71.01;96794.09;5016284;28;20226;-82
2022/05/09 11:45:40;;;;;;;4.38;3.83;;;;;;;22.43;67.70;96793.31;5008048;28;20269;-84
2022/05/09 11:48:17;;;;;;;3.97;3.67;;;;;;;22.49;67.26;96783.88;5016375;28;20235;-80
2022/05/09 11:50:49;;;;;;;5.78;4.28;;;;;;;22.63;68.17;96791.09;5017813;28;20234;-85
2022/05/09 11:53:22;;;;;;;4.10;3.80;;;;;;;22.97;67.43;96788.13;5017433;28;20207;-86
2022/05/09 11:55:49;;;;;;;11.35;3.58;;;;;;;23.29;66.29;96790.13;5030711;28;20203;-86
2022/05/09 11:58:17;;;;;;;3.90;3.60;;;;;;;23.20;65.67;96782.84;5019726;28;20246;-86
2022/05/09 12:00:54;;;;;;;5.05;4.03;;;;;;;23.33;64.03;96782.88;5010948;28;20520;-85
2022/05/09 12:04:03;;;;;;;4.20;3.80;;;;;;;23.34;63.50;96783.72;5017987;28;20210;-86
2022/05/09 12:06:43;;;;;;;4.60;4.20;;;;;;;23.05;64.83;96778.41;5012054;28;20227;-86